createdAt,value
2023-03-26T00:00:25.008Z,72.50
2023-03-26T00:03:27.039Z,72.50
2023-03-26T00:06:31.757Z,73.10
2023-03-26T00:09:33.724Z,72.40
2023-03-26T00:12:35.717Z,72.80
2023-03-26T00:15:38.475Z,72.50
2023-03-26T00:18:41.643Z,72.40
2023-03-26T00:21:43.785Z,71.60
2023-03-26T00:24:45.825Z,72.20
2023-03-26T00:27:47.990Z,72.70
2023-03-26T00:30:56.842Z,72.50
2023-03-26T00:33:59.102Z,73.30
2023-03-26T00:37:01.132Z,72.70
2023-03-26T00:40:04.287Z,72.80
2023-03-26T00:43:06.520Z,73.10
2023-03-26T00:46:09.129Z,72.00
2023-03-26T00:49:11.281Z,71.70
2023-03-26T00:52:13.300Z,71.60
2023-03-26T00:55:15.258Z,71.90
2023-03-26T00:58:28.995Z,72.30
2023-03-26T01:01:31.486Z,71.60
2023-03-26T01:04:35.391Z,71.10
2023-03-26T01:07:38.224Z,71.90
2023-03-26T01:10:40.279Z,72.50
2023-03-26T01:13:57.066Z,71.00
2023-03-26T01:17:01.942Z,72.20
2023-03-26T01:20:23.776Z,72.30
2023-03-26T01:23:37.635Z,72.20
2023-03-26T01:26:43.345Z,72.00
2023-03-26T01:29:57.418Z,71.60
2023-03-26T01:33:09.507Z,71.40
2023-03-26T01:36:25.502Z,72.10
2023-03-26T01:39:50.842Z,71.70
2023-03-26T01:43:06.385Z,71.90
2023-03-26T01:46:11.160Z,71.50
2023-03-26T01:49:13.415Z,71.80
2023-03-26T01:52:20.628Z,71.70
2023-03-26T01:55:28.404Z,71.70
2023-03-26T01:58:45.344Z,72.30
2023-03-26T02:02:03.470Z,72.00
2023-03-26T02:05:14.454Z,72.00
2023-03-26T02:08:16.559Z,73.00
2023-03-26T02:11:19.975Z,71.90
2023-03-26T02:14:22.598Z,72.40
2023-03-26T02:17:24.671Z,72.50
2023-03-26T02:20:27.899Z,72.20
2023-03-26T02:23:29.855Z,73.20
2023-03-26T02:26:34.136Z,72.80
2023-03-26T02:29:45.281Z,72.90
2023-03-26T02:32:47.733Z,73.00
2023-03-26T02:35:49.855Z,72.90
2023-03-26T02:38:51.840Z,73.00
2023-03-26T02:41:53.904Z,73.20
2023-03-26T02:44:58.326Z,73.10
2023-03-26T02:48:35.532Z,72.70
2023-03-26T02:51:46.786Z,73.90
2023-03-26T02:55:00.333Z,74.00
2023-03-26T02:58:02.955Z,73.80
2023-03-26T03:01:10.635Z,73.50
2023-03-26T03:04:22.201Z,74.20
2023-03-26T03:07:24.518Z,73.90
2023-03-26T03:10:27.238Z,73.90
2023-03-26T03:13:45.858Z,74.50
2023-03-26T03:16:51.906Z,74.10
2023-03-26T03:19:56.899Z,74.10
2023-03-26T03:22:59.033Z,74.40
2023-03-26T03:26:01.028Z,73.90
2023-03-26T03:29:05.621Z,73.70
2023-03-26T03:32:08.174Z,73.90
2023-03-26T03:35:16.635Z,74.30
2023-03-26T03:38:23.989Z,74.00
2023-03-26T03:41:27.497Z,74.50
2023-03-26T03:44:29.878Z,74.50
2023-03-26T03:47:32.472Z,74.00
2023-03-26T03:50:35.838Z,73.70
2023-03-26T03:53:58.837Z,73.90
2023-03-26T03:57:21.156Z,74.00
2023-03-26T04:00:39.761Z,73.80
2023-03-26T04:04:01.808Z,73.50
2023-03-26T04:07:19.252Z,73.90
2023-03-26T04:10:40.315Z,73.80
2023-03-26T04:13:42.504Z,74.90
2023-03-26T04:17:07.523Z,75.60
2023-03-26T04:20:13.130Z,75.70
2023-03-26T04:23:19.070Z,76.20
2023-03-26T04:26:25.388Z,76.40
2023-03-26T04:29:48.237Z,76.80
2023-03-26T04:32:54.672Z,77.20
2023-03-26T04:35:57.120Z,77.50
2023-03-26T04:39:02.638Z,78.00
2023-03-26T04:42:24.583Z,78.00
2023-03-26T04:45:40.652Z,77.60
2023-03-26T04:48:42.708Z,77.20
2023-03-26T04:51:45.258Z,77.40
2023-03-26T04:55:24.140Z,77.70
2023-03-26T04:58:34.038Z,76.70
2023-03-26T05:01:36.833Z,76.30
2023-03-26T05:04:40.006Z,76.80
2023-03-26T05:07:44.182Z,77.00
2023-03-26T05:10:49.282Z,76.70
2023-03-26T05:13:58.534Z,77.30
2023-03-26T05:17:01.740Z,77.40
2023-03-26T05:20:04.125Z,77.80
2023-03-26T05:23:06.368Z,77.90
2023-03-26T05:26:11.336Z,77.20
2023-03-26T05:29:14.956Z,76.60
2023-03-26T05:32:21.465Z,76.00
2023-03-26T05:35:27.682Z,77.00
2023-03-26T05:38:31.855Z,77.60
2023-03-26T05:41:35.248Z,77.50
2023-03-26T05:44:37.265Z,76.70
2023-03-26T05:47:49.332Z,76.40
2023-03-26T05:50:54.643Z,76.00
2023-03-26T05:53:57.250Z,76.20
2023-03-26T05:57:19.356Z,76.10
2023-03-26T06:01:04.455Z,75.80
2023-03-26T06:04:22.137Z,75.60
2023-03-26T06:07:41.621Z,76.10
2023-03-26T06:10:51.213Z,75.60
2023-03-26T06:13:53.377Z,75.70
2023-03-26T06:16:55.673Z,75.60
2023-03-26T06:19:57.716Z,75.90
2023-03-26T06:23:09.759Z,75.70
2023-03-26T06:26:28.310Z,74.70
2023-03-26T06:29:37.715Z,74.20
2023-03-26T06:32:45.839Z,74.80
2023-03-26T06:35:53.428Z,74.60
2023-03-26T06:38:55.974Z,74.50
2023-03-26T06:41:58.095Z,74.60
2023-03-26T06:45:33.428Z,75.40
2023-03-26T06:49:10.980Z,75.80
2023-03-26T06:52:45.481Z,76.30
2023-03-26T06:56:10.873Z,76.10
2023-03-26T06:59:30.879Z,76.00
2023-03-26T07:03:08.702Z,76.70
2023-03-26T07:06:46.147Z,77.30
2023-03-26T07:10:07.302Z,76.20
2023-03-26T07:13:14.758Z,76.80
2023-03-26T07:16:25.548Z,78.00
2023-03-26T07:19:44.218Z,78.00
2023-03-26T07:22:46.831Z,78.10
2023-03-26T07:25:52.192Z,78.20
2023-03-26T07:29:43.804Z,78.90
2023-03-26T07:33:17.626Z,81.40
2023-03-26T07:37:13.311Z,80.40
2023-03-26T07:40:46.611Z,82.60
2023-03-26T07:44:26.181Z,84.20
2023-03-26T07:47:37.258Z,84.20
2023-03-26T07:50:58.354Z,84.40
2023-03-26T07:54:20.729Z,84.60
2023-03-26T07:57:59.884Z,84.00
2023-03-26T08:01:37.097Z,84.50
2023-03-26T08:04:57.388Z,85.30
2023-03-26T08:08:45.319Z,85.20
2023-03-26T08:12:29.013Z,84.60
2023-03-26T08:15:53.240Z,84.40
2023-03-26T08:18:58.115Z,84.70
2023-03-26T08:22:12.168Z,84.40
2023-03-26T08:25:37.434Z,85.10
2023-03-26T08:28:45.126Z,85.00
2023-03-26T08:31:49.535Z,85.20
2023-03-26T08:34:51.506Z,84.30
2023-03-26T08:37:53.800Z,85.50
2023-03-26T08:41:05.921Z,85.20
2023-03-26T08:44:14.459Z,85.10
2023-03-26T08:47:55.667Z,85.20
2023-03-26T08:51:03.174Z,83.50
2023-03-26T08:54:23.260Z,82.80
2023-03-26T08:57:49.882Z,82.30
2023-03-26T09:01:10.536Z,79.30
2023-03-26T09:04:44.116Z,78.40
2023-03-26T09:08:23.033Z,79.00
2023-03-26T09:11:43.212Z,80.90
2023-03-26T09:14:51.423Z,80.40
2023-03-26T09:18:16.602Z,81.00
2023-03-26T09:21:44.184Z,82.90
2023-03-26T09:25:07.453Z,83.90
2023-03-26T09:28:56.543Z,83.70
2023-03-26T09:32:07.546Z,84.60
2023-03-26T09:35:18.306Z,83.50
2023-03-26T09:38:37.569Z,83.90
2023-03-26T09:41:48.384Z,84.20
2023-03-26T09:45:05.280Z,82.90
2023-03-26T09:48:16.141Z,84.30
2023-03-26T09:51:29.766Z,84.30
2023-03-26T09:54:40.733Z,83.80
2023-03-26T09:58:20.903Z,81.90
2023-03-26T10:01:35.320Z,81.30
2023-03-26T10:05:23.519Z,78.70
2023-03-26T10:08:34.179Z,73.00
2023-03-26T10:12:12.079Z,68.70
2023-03-26T10:15:23.976Z,69.20
2023-03-26T10:18:48.371Z,62.30
2023-03-26T10:22:01.881Z,65.50
2023-03-26T10:25:29.220Z,63.40
2023-03-26T10:28:59.027Z,62.60
2023-03-26T10:32:06.567Z,56.00
2023-03-26T10:35:39.639Z,54.50
2023-03-26T10:39:35.986Z,51.10
2023-03-26T10:42:55.404Z,51.00
2023-03-26T10:46:08.089Z,49.80
2023-03-26T10:49:34.878Z,49.00
2023-03-26T11:03:43.334Z,47.30
2023-03-26T11:07:04.472Z,51.30
2023-03-26T11:10:17.755Z,50.50
2023-03-26T11:13:59.077Z,49.40
2023-03-26T11:17:40.306Z,50.70
2023-03-26T11:20:47.987Z,51.00
2023-03-26T11:24:06.645Z,49.10
2023-03-26T11:27:23.733Z,49.90
2023-03-26T11:30:48.900Z,52.40
2023-03-26T11:33:56.020Z,53.50
2023-03-26T11:37:01.600Z,51.30
2023-03-26T11:40:13.944Z,51.20
2023-03-26T11:43:18.964Z,51.10
2023-03-26T11:46:23.587Z,52.10
2023-03-26T11:49:27.762Z,48.10
2023-03-26T11:52:29.852Z,49.00
2023-03-26T11:55:32.524Z,50.80
2023-03-26T11:58:50.086Z,48.10
2023-03-26T12:02:09.954Z,48.40
2023-03-26T12:05:13.054Z,46.70
2023-03-26T12:08:21.840Z,48.40
2023-03-26T12:11:28.695Z,46.20
2023-03-26T12:14:34.824Z,45.30
2023-03-26T12:17:38.692Z,47.50
2023-03-26T12:20:40.809Z,46.80
2023-03-26T12:23:55.097Z,49.40
2023-03-26T12:26:58.202Z,49.40
2023-03-26T12:30:10.017Z,47.00
2023-03-26T12:33:19.848Z,47.10
2023-03-26T12:36:31.325Z,47.50
2023-03-26T12:40:09.552Z,47.70
2023-03-26T12:44:56.402Z,45.90
2023-03-26T12:47:58.925Z,46.90
2023-03-26T12:49:52.550Z,45.30
2023-03-26T12:53:01.502Z,45.80
2023-03-26T12:56:27.038Z,46.90
2023-03-26T13:00:14.678Z,46.70
2023-03-26T13:03:28.627Z,47.30
2023-03-26T13:07:09.574Z,45.70
2023-03-26T13:10:33.466Z,45.90
2023-03-26T13:13:47.820Z,48.10
2023-03-26T13:17:02.462Z,47.90
2023-03-26T13:20:39.645Z,46.30
2023-03-26T13:24:13.731Z,47.10
2023-03-26T13:27:36.542Z,46.80
2023-03-26T13:30:52.643Z,48.30
2023-03-26T13:34:16.169Z,47.70
2023-03-26T13:37:30.864Z,47.90
2023-03-26T13:40:46.776Z,48.10
2023-03-26T13:44:03.185Z,47.50
2023-03-26T13:47:13.515Z,48.00
2023-03-26T13:50:31.046Z,48.80
2023-03-26T13:53:44.240Z,49.80
2023-03-26T13:57:02.322Z,50.30
2023-03-26T14:00:15.280Z,50.60
2023-03-26T14:03:49.892Z,49.80
2023-03-26T14:07:01.456Z,53.60
2023-03-26T14:10:19.942Z,56.10
2023-03-26T14:13:39.108Z,61.20
2023-03-26T14:16:51.227Z,62.50
2023-03-26T14:20:12.178Z,65.70
2023-03-26T14:23:38.646Z,68.30
2023-03-26T14:27:02.050Z,71.20
2023-03-26T14:30:28.412Z,72.00
2023-03-26T14:34:07.604Z,73.30
2023-03-26T14:37:31.389Z,74.10
2023-03-26T14:40:52.312Z,74.40
2023-03-26T14:44:28.347Z,75.80
2023-03-26T14:47:31.083Z,76.10
2023-03-26T14:50:36.013Z,76.80
2023-03-26T14:54:09.668Z,76.50
2023-03-26T14:57:26.848Z,76.20
2023-03-26T15:01:17.056Z,75.50
2023-03-26T15:04:40.413Z,76.40
2023-03-26T15:08:03.402Z,75.70
2023-03-26T15:11:17.784Z,75.40
2023-03-26T15:14:50.884Z,75.60
2023-03-26T15:18:12.554Z,77.00
2023-03-26T15:21:45.931Z,76.30
2023-03-26T15:25:25.202Z,76.90
2023-03-26T15:29:17.838Z,76.20
2023-03-26T15:32:20.146Z,76.30
2023-03-26T15:35:22.060Z,77.90
2023-03-26T15:38:47.451Z,77.40
2023-03-26T15:42:18.489Z,75.60
2023-03-26T15:45:33.216Z,76.70
2023-03-26T15:48:45.009Z,75.20
2023-03-26T15:51:53.022Z,74.90
2023-03-26T15:55:40.954Z,75.50
2023-03-26T15:58:52.811Z,76.30
2023-03-26T16:01:58.861Z,76.10
2023-03-26T16:05:36.878Z,74.90
2023-03-26T16:08:51.863Z,75.90
2023-03-26T16:12:03.737Z,76.50
2023-03-26T16:15:26.042Z,76.10
2023-03-26T16:18:37.303Z,75.20
2023-03-26T16:21:53.286Z,75.40
2023-03-26T16:25:28.460Z,76.30
2023-03-26T16:28:35.941Z,76.30
2023-03-26T16:32:15.156Z,76.20
2023-03-26T16:35:17.146Z,76.80
2023-03-26T16:38:23.782Z,77.40
2023-03-26T16:41:32.720Z,76.10
2023-03-26T16:45:18.464Z,75.40
2023-03-26T16:48:33.236Z,76.20
2023-03-26T16:52:12.462Z,76.60
2023-03-26T16:55:23.340Z,76.70
2023-03-26T16:58:53.368Z,76.30
2023-03-26T17:02:12.960Z,76.10
2023-03-26T17:05:21.640Z,77.60
2023-03-26T17:08:43.735Z,77.40
2023-03-26T17:12:03.868Z,77.00
2023-03-26T17:15:22.701Z,77.30
2023-03-26T17:18:39.571Z,77.20
2023-03-26T17:21:51.699Z,77.30
2023-03-26T17:25:24.509Z,77.30
2023-03-26T17:28:45.111Z,77.80
2023-03-26T17:31:59.582Z,77.30
2023-03-26T17:35:02.602Z,77.30
2023-03-26T17:38:28.767Z,77.60
2023-03-26T17:41:54.272Z,77.50
2023-03-26T17:44:58.717Z,77.50
2023-03-26T17:48:18.560Z,77.60
2023-03-26T17:51:44.788Z,77.20
2023-03-26T17:54:50.478Z,77.30
2023-03-26T17:57:57.111Z,77.20
2023-03-26T18:01:18.476Z,77.30
2023-03-26T18:04:37.960Z,77.40
2023-03-26T18:11:35.915Z,77.60
2023-03-26T18:15:06.515Z,77.70
2023-03-26T18:18:08.520Z,78.50
2023-03-26T18:21:17.711Z,78.00
2023-03-26T18:24:24.084Z,78.00
2023-03-26T18:27:33.359Z,77.20
2023-03-26T18:30:48.949Z,76.70
2023-03-26T18:33:56.141Z,76.80
2023-03-26T18:37:23.260Z,77.20
2023-03-26T18:40:27.870Z,76.40
2023-03-26T18:43:35.145Z,77.10
2023-03-26T18:46:38.573Z,76.30
2023-03-26T18:49:43.845Z,76.00
2023-03-26T18:52:45.837Z,76.60
2023-03-26T18:55:49.332Z,76.50
2023-03-26T18:58:52.654Z,76.50
2023-03-26T19:01:59.606Z,76.60
2023-03-26T19:05:02.379Z,76.20
2023-03-26T19:08:06.320Z,76.40
2023-03-26T19:11:10.606Z,76.00
2023-03-26T19:14:19.220Z,75.70
2023-03-26T19:17:21.890Z,76.20
2023-03-26T19:20:26.964Z,76.30
2023-03-26T19:23:33.597Z,76.70
2023-03-26T19:26:35.897Z,76.30
2023-03-26T19:29:38.489Z,76.40
2023-03-26T19:32:52.157Z,76.50
2023-03-26T19:36:04.705Z,75.90
2023-03-26T19:39:13.119Z,76.20
2023-03-26T19:42:25.607Z,76.50
2023-03-26T19:45:27.685Z,76.80
2023-03-26T19:48:46.317Z,76.80
2023-03-26T19:51:50.947Z,77.10
2023-03-26T19:55:15.356Z,77.70
2023-03-26T19:58:17.382Z,77.40
2023-03-26T20:01:28.667Z,77.50
2023-03-26T20:04:30.955Z,77.70
2023-03-26T20:07:34.896Z,77.50
2023-03-26T20:10:39.561Z,77.60
2023-03-26T20:13:41.596Z,77.80
2023-03-26T20:16:45.301Z,77.50
2023-03-26T20:19:47.999Z,77.80
2023-03-26T20:22:50.043Z,79.00
2023-03-26T20:25:52.376Z,79.40
2023-03-26T20:28:54.368Z,79.30
2023-03-26T20:31:56.392Z,80.10
2023-03-26T20:34:58.490Z,79.50
2023-03-26T20:38:00.534Z,80.40
2023-03-26T20:41:02.620Z,80.80
2023-03-26T20:44:11.815Z,80.70
2023-03-26T20:47:13.812Z,80.80
2023-03-26T20:50:17.744Z,80.80
2023-03-26T20:53:20.344Z,80.70
2023-03-26T20:56:22.413Z,80.40
2023-03-26T20:59:27.159Z,80.70
2023-03-26T21:02:29.400Z,80.90
2023-03-26T21:05:31.918Z,81.00
2023-03-26T21:08:34.205Z,80.80
2023-03-26T21:11:50.134Z,81.70
2023-03-26T21:14:52.449Z,82.00
2023-03-26T21:17:58.718Z,81.90
2023-03-26T21:21:22.336Z,82.30
2023-03-26T21:24:43.106Z,82.00
2023-03-26T21:28:05.858Z,82.10
2023-03-26T21:31:14.405Z,82.00
2023-03-26T21:34:16.638Z,82.10
2023-03-26T21:37:19.135Z,82.30
2023-03-26T21:40:21.657Z,82.00
2023-03-26T21:43:23.982Z,82.30
2023-03-26T21:46:26.390Z,82.30
2023-03-26T21:49:31.899Z,81.90
2023-03-26T21:52:34.788Z,82.40
2023-03-26T21:55:54.286Z,82.20
2023-03-26T21:59:05.076Z,82.70
2023-03-26T22:02:39.022Z,83.10
2023-03-26T22:05:49.288Z,83.20
2023-03-26T22:08:51.511Z,83.00
2023-03-26T22:11:54.021Z,83.00
2023-03-26T22:14:56.009Z,83.50
2023-03-26T22:18:02.891Z,83.60
2023-03-26T22:21:05.433Z,83.80
2023-03-26T22:24:07.615Z,83.80
2023-03-26T22:27:09.791Z,84.20
2023-03-26T22:30:12.568Z,83.50
2023-03-26T22:33:14.602Z,84.10
2023-03-26T22:36:23.121Z,84.00
2023-03-26T22:39:25.959Z,83.90
2023-03-26T22:42:28.149Z,84.10
2023-03-26T22:45:30.498Z,84.00
2023-03-26T22:48:33.174Z,84.00
2023-03-26T22:51:35.152Z,84.70
2023-03-26T22:54:37.128Z,84.50
2023-03-26T22:57:39.716Z,84.40
2023-03-26T23:00:41.782Z,85.00
2023-03-26T23:03:44.350Z,85.00
2023-03-26T23:06:46.333Z,85.50
2023-03-26T23:09:48.623Z,85.00
2023-03-26T23:12:51.803Z,84.10
2023-03-26T23:15:55.695Z,84.60
2023-03-26T23:18:58.108Z,83.90
2023-03-26T23:22:00.158Z,82.60
2023-03-26T23:25:02.094Z,82.70
2023-03-26T23:28:04.272Z,83.20
2023-03-26T23:31:07.823Z,83.50
2023-03-26T23:34:09.872Z,83.40
2023-03-26T23:37:12.331Z,82.90
2023-03-26T23:40:14.348Z,83.50
2023-03-26T23:43:16.630Z,83.20
2023-03-26T23:46:18.716Z,82.40
2023-03-26T23:49:20.713Z,83.30
2023-03-26T23:52:22.667Z,82.20
2023-03-26T23:55:26.689Z,82.90
2023-03-26T23:58:29.805Z,83.00
